sensor_id;sensor_type;location;lat;lon;timestamp;P1;durP1;ratioP1;P2;durP2;ratioP2
50433;SDS011;36361;38.954;-9.002;2023-07-02T00:00:48;9.32;;;4.07;;
50433;SDS011;36361;38.954;-9.002;2023-07-02T00:02:13;9.88;;;3.65;;
50433;SDS011;36361;38.954;-9.002;2023-07-02T00:03:20;11.43;;;4.03;;
50433;SDS011;36361;38.954;-9.002;2023-07-02T00:04:24;11.02;;;4.00;;
50433;SDS011;36361;38.954;-9.002;2023-07-02T00:05:40;9.25;;;3.03;;
50433;SDS011;36361;38.954;-9.002;2023-07-02T00:06:47;10.18;;;3.45;;
50433;SDS011;36361;38.954;-9.002;2023-07-02T00:08:05;11.43;;;3.60;;
50433;SDS011;36361;38.954;-9.002;2023-07-02T00:09:17;12.48;;;4.10;;
50433;SDS011;36361;38.954;-9.002;2023-07-02T00:10:24;12.25;;;3.45;;
50433;SDS011;36361;38.954;-9.002;2023-07-02T00:11:43;7.75;;;3.47;;
50433;SDS011;36361;38.954;-9.002;2023-07-02T00:13:02;11.15;;;3.70;;
50433;SDS011;36361;38.954;-9.002;2023-07-02T00:14:06;9.13;;;3.63;;
50433;SDS011;36361;38.954;-9.002;2023-07-02T00:15:13;11.60;;;4.00;;
50433;SDS011;36361;38.954;-9.002;2023-07-02T00:16:20;7.40;;;2.58;;
50433;SDS011;36361;38.954;-9.002;2023-07-02T00:17:55;10.48;;;3.72;;
50433;SDS011;36361;38.954;-9.002;2023-07-02T00:19:05;11.65;;;4.47;;
50433;SDS011;36361;38.954;-9.002;2023-07-02T00:20:17;11.57;;;3.03;;
50433;SDS011;36361;38.954;-9.002;2023-07-02T00:21:21;8.82;;;3.30;;
50433;SDS011;36361;38.954;-9.002;2023-07-02T00:22:43;11.82;;;3.75;;
50433;SDS011;36361;38.954;-9.002;2023-07-02T00:25:20;10.35;;;3.67;;
50433;SDS011;36361;38.954;-9.002;2023-07-02T00:26:30;15.02;;;4.90;;
50433;SDS011;36361;38.954;-9.002;2023-07-02T00:27:45;11.90;;;4.63;;
50433;SDS011;36361;38.954;-9.002;2023-07-02T00:28:53;7.05;;;3.25;;
50433;SDS011;36361;38.954;-9.002;2023-07-02T00:30:12;11.40;;;4.18;;
50433;SDS011;36361;38.954;-9.002;2023-07-02T00:31:32;8.20;;;3.33;;
50433;SDS011;36361;38.954;-9.002;2023-07-02T00:32:47;11.95;;;4.55;;
50433;SDS011;36361;38.954;-9.002;2023-07-02T00:34:03;12.68;;;3.90;;
50433;SDS011;36361;38.954;-9.002;2023-07-02T00:35:10;12.52;;;4.60;;
50433;SDS011;36361;38.954;-9.002;2023-07-02T00:36:14;10.82;;;3.55;;
50433;SDS011;36361;38.954;-9.002;2023-07-02T00:37:32;10.00;;;3.50;;
50433;SDS011;36361;38.954;-9.002;2023-07-02T00:38:37;11.85;;;4.53;;
50433;SDS011;36361;38.954;-9.002;2023-07-02T00:40:06;11.60;;;3.83;;
50433;SDS011;36361;38.954;-9.002;2023-07-02T00:41:25;9.85;;;3.03;;
50433;SDS011;36361;38.954;-9.002;2023-07-02T00:42:35;9.50;;;3.65;;
50433;SDS011;36361;38.954;-9.002;2023-07-02T00:43:39;10.65;;;4.00;;
50433;SDS011;36361;38.954;-9.002;2023-07-02T00:44:43;12.75;;;4.40;;
50433;SDS011;36361;38.954;-9.002;2023-07-02T00:45:50;9.43;;;3.40;;
50433;SDS011;36361;38.954;-9.002;2023-07-02T00:46:59;10.13;;;4.22;;
50433;SDS011;36361;38.954;-9.002;2023-07-02T00:48:03;10.40;;;3.45;;
50433;SDS011;36361;38.954;-9.002;2023-07-02T00:49:07;11.50;;;3.90;;
50433;SDS011;36361;38.954;-9.002;2023-07-02T00:50:21;11.80;;;4.20;;
50433;SDS011;36361;38.954;-9.002;2023-07-02T00:51:32;7.80;;;2.88;;
50433;SDS011;36361;38.954;-9.002;2023-07-02T00:52:39;7.07;;;2.97;;
50433;SDS011;36361;38.954;-9.002;2023-07-02T00:53:50;12.00;;;4.07;;
50433;SDS011;36361;38.954;-9.002;2023-07-02T00:55:09;9.32;;;3.60;;
50433;SDS011;36361;38.954;-9.002;2023-07-02T00:56:16;9.35;;;3.33;;
50433;SDS011;36361;38.954;-9.002;2023-07-02T00:57:24;10.35;;;3.28;;
50433;SDS011;36361;38.954;-9.002;2023-07-02T00:58:29;7.63;;;3.35;;
50433;SDS011;36361;38.954;-9.002;2023-07-02T01:00:05;7.47;;;3.35;;
50433;SDS011;36361;38.954;-9.002;2023-07-02T01:02:26;12.57;;;4.57;;
50433;SDS011;36361;38.954;-9.002;2023-07-02T01:03:36;8.93;;;3.33;;
50433;SDS011;36361;38.954;-9.002;2023-07-02T01:05:04;12.98;;;4.20;;
50433;SDS011;36361;38.954;-9.002;2023-07-02T01:06:25;7.28;;;2.85;;
50433;SDS011;36361;38.954;-9.002;2023-07-02T01:07:34;8.18;;;3.53;;
50433;SDS011;36361;38.954;-9.002;2023-07-02T01:08:40;11.95;;;3.67;;
50433;SDS011;36361;38.954;-9.002;2023-07-02T01:09:47;9.77;;;3.25;;
50433;SDS011;36361;38.954;-9.002;2023-07-02T01:11:03;11.02;;;3.42;;
50433;SDS011;36361;38.954;-9.002;2023-07-02T01:12:21;15.32;;;4.82;;
50433;SDS011;36361;38.954;-9.002;2023-07-02T01:13:23;11.57;;;3.80;;
50433;SDS011;36361;38.954;-9.002;2023-07-02T01:14:47;10.52;;;3.30;;
50433;SDS011;36361;38.954;-9.002;2023-07-02T01:16:05;10.63;;;4.22;;
50433;SDS011;36361;38.954;-9.002;2023-07-02T01:17:15;9.52;;;4.13;;
50433;SDS011;36361;38.954;-9.002;2023-07-02T01:18:22;9.45;;;3.50;;
50433;SDS011;36361;38.954;-9.002;2023-07-02T01:20:45;8.30;;;3.30;;
50433;SDS011;36361;38.954;-9.002;2023-07-02T01:22:04;9.45;;;3.38;;
50433;SDS011;36361;38.954;-9.002;2023-07-02T01:23:09;12.40;;;4.05;;
50433;SDS011;36361;38.954;-9.002;2023-07-02T01:24:19;7.97;;;3.20;;
50433;SDS011;36361;38.954;-9.002;2023-07-02T01:25:31;10.38;;;3.33;;
50433;SDS011;36361;38.954;-9.002;2023-07-02T01:26:39;8.57;;;3.45;;
50433;SDS011;36361;38.954;-9.002;2023-07-02T01:27:43;7.78;;;3.10;;
50433;SDS011;36361;38.954;-9.002;2023-07-02T01:28:53;9.18;;;3.25;;
50433;SDS011;36361;38.954;-9.002;2023-07-02T01:30:00;8.93;;;3.25;;
50433;SDS011;36361;38.954;-9.002;2023-07-02T01:31:04;8.98;;;3.05;;
50433;SDS011;36361;38.954;-9.002;2023-07-02T01:32:23;10.48;;;3.75;;
50433;SDS011;36361;38.954;-9.002;2023-07-02T01:33:33;13.70;;;4.20;;
50433;SDS011;36361;38.954;-9.002;2023-07-02T01:34:40;8.85;;;3.35;;
50433;SDS011;36361;38.954;-9.002;2023-07-02T01:35:59;12.27;;;4.15;;
50433;SDS011;36361;38.954;-9.002;2023-07-02T01:37:05;10.40;;;4.13;;
50433;SDS011;36361;38.954;-9.002;2023-07-02T01:38:24;8.05;;;3.00;;
50433;SDS011;36361;38.954;-9.002;2023-07-02T01:39:49;12.77;;;4.20;;
50433;SDS011;36361;38.954;-9.002;2023-07-02T01:40:53;10.32;;;3.97;;
50433;SDS011;36361;38.954;-9.002;2023-07-02T01:43:32;10.27;;;3.97;;
50433;SDS011;36361;38.954;-9.002;2023-07-02T01:44:45;11.25;;;4.70;;
50433;SDS011;36361;38.954;-9.002;2023-07-02T01:45:53;8.65;;;3.35;;
50433;SDS011;36361;38.954;-9.002;2023-07-02T01:47:30;9.68;;;3.50;;
50433;SDS011;36361;38.954;-9.002;2023-07-02T01:48:40;11.63;;;3.45;;
50433;SDS011;36361;38.954;-9.002;2023-07-02T01:50:03;13.50;;;4.30;;
50433;SDS011;36361;38.954;-9.002;2023-07-02T01:51:11;10.10;;;3.42;;
50433;SDS011;36361;38.954;-9.002;2023-07-02T01:52:15;9.05;;;3.50;;
50433;SDS011;36361;38.954;-9.002;2023-07-02T01:53:38;13.68;;;3.72;;
50433;SDS011;36361;38.954;-9.002;2023-07-02T01:54:56;14.27;;;4.32;;
50433;SDS011;36361;38.954;-9.002;2023-07-02T01:56:08;16.42;;;4.70;;
50433;SDS011;36361;38.954;-9.002;2023-07-02T01:57:20;9.25;;;3.30;;
50433;SDS011;36361;38.954;-9.002;2023-07-02T01:58:39;11.07;;;4.20;;
50433;SDS011;36361;38.954;-9.002;2023-07-02T01:59:43;11.57;;;4.25;;
50433;SDS011;36361;38.954;-9.002;2023-07-02T02:00:46;12.10;;;4.03;;
50433;SDS011;36361;38.954;-9.002;2023-07-02T02:02:08;10.25;;;4.10;;
50433;SDS011;36361;38.954;-9.002;2023-07-02T02:03:30;9.52;;;3.63;;
50433;SDS011;36361;38.954;-9.002;2023-07-02T02:04:37;9.60;;;3.78;;
50433;SDS011;36361;38.954;-9.002;2023-07-02T02:05:40;8.18;;;3.45;;
50433;SDS011;36361;38.954;-9.002;2023-07-02T02:06:56;11.45;;;4.07;;
50433;SDS011;36361;38.954;-9.002;2023-07-02T02:07:59;9.95;;;3.83;;
50433;SDS011;36361;38.954;-9.002;2023-07-02T02:09:21;11.13;;;4.10;;
50433;SDS011;36361;38.954;-9.002;2023-07-02T02:10:35;8.98;;;3.78;;
50433;SDS011;36361;38.954;-9.002;2023-07-02T02:11:43;11.68;;;4.15;;
50433;SDS011;36361;38.954;-9.002;2023-07-02T02:12:53;14.60;;;5.63;;
50433;SDS011;36361;38.954;-9.002;2023-07-02T02:14:06;8.95;;;3.42;;
50433;SDS011;36361;38.954;-9.002;2023-07-02T02:15:25;13.45;;;4.50;;
50433;SDS011;36361;38.954;-9.002;2023-07-02T02:16:44;13.25;;;4.47;;
50433;SDS011;36361;38.954;-9.002;2023-07-02T02:17:56;9.63;;;4.03;;
50433;SDS011;36361;38.954;-9.002;2023-07-02T02:19:00;11.48;;;4.25;;
50433;SDS011;36361;38.954;-9.002;2023-07-02T02:20:11;9.00;;;3.40;;
50433;SDS011;36361;38.954;-9.002;2023-07-02T02:21:23;9.65;;;3.95;;
50433;SDS011;36361;38.954;-9.002;2023-07-02T02:22:27;10.23;;;4.80;;
50433;SDS011;36361;38.954;-9.002;2023-07-02T02:23:34;11.55;;;4.22;;
50433;SDS011;36361;38.954;-9.002;2023-07-02T02:24:38;13.93;;;4.85;;
50433;SDS011;36361;38.954;-9.002;2023-07-02T02:25:44;10.63;;;4.22;;
50433;SDS011;36361;38.954;-9.002;2023-07-02T02:26:51;10.00;;;3.33;;
50433;SDS011;36361;38.954;-9.002;2023-07-02T02:29:14;14.07;;;4.55;;
50433;SDS011;36361;38.954;-9.002;2023-07-02T02:30:18;16.08;;;5.15;;
50433;SDS011;36361;38.954;-9.002;2023-07-02T02:31:29;13.50;;;4.88;;
50433;SDS011;36361;38.954;-9.002;2023-07-02T02:32:36;12.07;;;4.55;;
50433;SDS011;36361;38.954;-9.002;2023-07-02T02:33:46;11.93;;;4.57;;
50433;SDS011;36361;38.954;-9.002;2023-07-02T02:34:51;10.50;;;3.30;;
50433;SDS011;36361;38.954;-9.002;2023-07-02T02:35:58;13.55;;;4.45;;
50433;SDS011;36361;38.954;-9.002;2023-07-02T02:37:05;14.30;;;4.57;;
50433;SDS011;36361;38.954;-9.002;2023-07-02T02:38:09;8.88;;;4.03;;
50433;SDS011;36361;38.954;-9.002;2023-07-02T02:39:15;17.52;;;4.97;;
50433;SDS011;36361;38.954;-9.002;2023-07-02T02:40:19;10.80;;;3.88;;
50433;SDS011;36361;38.954;-9.002;2023-07-02T02:41:50;13.02;;;5.13;;
50433;SDS011;36361;38.954;-9.002;2023-07-02T02:42:57;9.63;;;3.65;;
50433;SDS011;36361;38.954;-9.002;2023-07-02T02:44:24;9.27;;;3.50;;
50433;SDS011;36361;38.954;-9.002;2023-07-02T02:45:28;12.50;;;4.38;;
50433;SDS011;36361;38.954;-9.002;2023-07-02T02:46:38;7.85;;;3.70;;
50433;SDS011;36361;38.954;-9.002;2023-07-02T02:47:50;7.95;;;3.00;;
50433;SDS011;36361;38.954;-9.002;2023-07-02T02:49:06;12.10;;;4.63;;
50433;SDS011;36361;38.954;-9.002;2023-07-02T02:50:16;11.90;;;4.18;;
50433;SDS011;36361;38.954;-9.002;2023-07-02T02:51:35;9.85;;;4.50;;
50433;SDS011;36361;38.954;-9.002;2023-07-02T02:54:22;10.73;;;4.32;;
50433;SDS011;36361;38.954;-9.002;2023-07-02T02:55:29;11.77;;;4.30;;
50433;SDS011;36361;38.954;-9.002;2023-07-02T02:56:56;8.98;;;3.92;;
50433;SDS011;36361;38.954;-9.002;2023-07-02T02:58:05;9.75;;;4.10;;
50433;SDS011;36361;38.954;-9.002;2023-07-02T02:59:22;13.48;;;5.13;;
50433;SDS011;36361;38.954;-9.002;2023-07-02T03:00:43;9.07;;;3.88;;
50433;SDS011;36361;38.954;-9.002;2023-07-02T03:01:49;12.02;;;4.90;;
50433;SDS011;36361;38.954;-9.002;2023-07-02T03:03:05;9.27;;;3.65;;
50433;SDS011;36361;38.954;-9.002;2023-07-02T03:04:17;10.02;;;3.83;;
50433;SDS011;36361;38.954;-9.002;2023-07-02T03:05:25;12.35;;;4.10;;
50433;SDS011;36361;38.954;-9.002;2023-07-02T03:06:41;9.90;;;3.80;;
50433;SDS011;36361;38.954;-9.002;2023-07-02T03:07:52;14.45;;;4.88;;
50433;SDS011;36361;38.954;-9.002;2023-07-02T03:08:59;8.52;;;3.72;;
50433;SDS011;36361;38.954;-9.002;2023-07-02T03:10:03;10.30;;;3.55;;
50433;SDS011;36361;38.954;-9.002;2023-07-02T03:11:13;7.47;;;3.42;;
50433;SDS011;36361;38.954;-9.002;2023-07-02T03:12:17;16.77;;;5.50;;
50433;SDS011;36361;38.954;-9.002;2023-07-02T03:13:26;11.65;;;4.07;;
50433;SDS011;36361;38.954;-9.002;2023-07-02T03:14:33;10.25;;;3.90;;
50433;SDS011;36361;38.954;-9.002;2023-07-02T03:15:46;9.00;;;3.35;;
50433;SDS011;36361;38.954;-9.002;2023-07-02T03:17:02;11.55;;;4.03;;
50433;SDS011;36361;38.954;-9.002;2023-07-02T03:18:06;10.15;;;3.72;;
50433;SDS011;36361;38.954;-9.002;2023-07-02T03:19:13;10.55;;;4.60;;
50433;SDS011;36361;38.954;-9.002;2023-07-02T03:20:17;9.55;;;3.90;;
50433;SDS011;36361;38.954;-9.002;2023-07-02T03:21:27;9.15;;;3.65;;
50433;SDS011;36361;38.954;-9.002;2023-07-02T03:22:30;10.52;;;3.70;;
50433;SDS011;36361;38.954;-9.002;2023-07-02T03:23:37;11.38;;;3.97;;
50433;SDS011;36361;38.954;-9.002;2023-07-02T03:24:52;14.80;;;4.80;;
50433;SDS011;36361;38.954;-9.002;2023-07-02T03:26:08;8.23;;;4.15;;
50433;SDS011;36361;38.954;-9.002;2023-07-02T03:27:27;11.90;;;4.15;;
50433;SDS011;36361;38.954;-9.002;2023-07-02T03:28:58;10.05;;;3.75;;
50433;SDS011;36361;38.954;-9.002;2023-07-02T03:31:45;12.70;;;5.38;;
50433;SDS011;36361;38.954;-9.002;2023-07-02T03:33:04;8.30;;;3.88;;
50433;SDS011;36361;38.954;-9.002;2023-07-02T03:34:09;9.35;;;4.40;;
50433;SDS011;36361;38.954;-9.002;2023-07-02T03:35:16;14.05;;;4.57;;
50433;SDS011;36361;38.954;-9.002;2023-07-02T03:36:29;17.05;;;6.13;;
50433;SDS011;36361;38.954;-9.002;2023-07-02T03:37:32;19.88;;;6.85;;
50433;SDS011;36361;38.954;-9.002;2023-07-02T03:38:56;13.32;;;5.30;;
50433;SDS011;36361;38.954;-9.002;2023-07-02T03:40:05;10.65;;;4.53;;
50433;SDS011;36361;38.954;-9.002;2023-07-02T03:41:07;11.18;;;4.20;;
50433;SDS011;36361;38.954;-9.002;2023-07-02T03:42:19;14.00;;;5.28;;
50433;SDS011;36361;38.954;-9.002;2023-07-02T03:43:35;11.40;;;4.75;;
50433;SDS011;36361;38.954;-9.002;2023-07-02T03:44:51;14.00;;;4.80;;
50433;SDS011;36361;38.954;-9.002;2023-07-02T03:45:57;15.00;;;5.13;;
50433;SDS011;36361;38.954;-9.002;2023-07-02T03:47:03;8.18;;;3.30;;
50433;SDS011;36361;38.954;-9.002;2023-07-02T03:48:11;8.88;;;4.05;;
50433;SDS011;36361;38.954;-9.002;2023-07-02T03:49:36;11.20;;;4.47;;
50433;SDS011;36361;38.954;-9.002;2023-07-02T03:50:46;16.80;;;5.90;;
50433;SDS011;36361;38.954;-9.002;2023-07-02T03:51:53;9.70;;;4.03;;
50433;SDS011;36361;38.954;-9.002;2023-07-02T03:52:57;11.25;;;4.93;;
50433;SDS011;36361;38.954;-9.002;2023-07-02T03:54:03;19.58;;;6.70;;
50433;SDS011;36361;38.954;-9.002;2023-07-02T03:55:20;14.07;;;5.70;;
50433;SDS011;36361;38.954;-9.002;2023-07-02T03:56:30;10.98;;;4.22;;
50433;SDS011;36361;38.954;-9.002;2023-07-02T03:57:46;13.70;;;4.10;;
50433;SDS011;36361;38.954;-9.002;2023-07-02T03:58:52;21.60;;;6.68;;
50433;SDS011;36361;38.954;-9.002;2023-07-02T04:00:11;15.23;;;5.57;;
50433;SDS011;36361;38.954;-9.002;2023-07-02T04:01:37;15.43;;;6.15;;
50433;SDS011;36361;38.954;-9.002;2023-07-02T04:02:50;20.95;;;7.13;;
50433;SDS011;36361;38.954;-9.002;2023-07-02T04:03:58;15.88;;;6.15;;
50433;SDS011;36361;38.954;-9.002;2023-07-02T04:05:05;20.67;;;7.78;;
50433;SDS011;36361;38.954;-9.002;2023-07-02T04:06:16;15.13;;;5.95;;
50433;SDS011;36361;38.954;-9.002;2023-07-02T04:07:35;18.20;;;6.22;;
50433;SDS011;36361;38.954;-9.002;2023-07-02T04:08:54;16.95;;;6.45;;
50433;SDS011;36361;38.954;-9.002;2023-07-02T04:10:01;13.13;;;5.30;;
50433;SDS011;36361;38.954;-9.002;2023-07-02T04:11:11;17.50;;;5.85;;
50433;SDS011;36361;38.954;-9.002;2023-07-02T04:12:18;11.85;;;4.80;;
50433;SDS011;36361;38.954;-9.002;2023-07-02T04:13:22;20.17;;;6.20;;
50433;SDS011;36361;38.954;-9.002;2023-07-02T04:14:26;21.67;;;7.30;;
50433;SDS011;36361;38.954;-9.002;2023-07-02T04:15:32;20.38;;;6.57;;
50433;SDS011;36361;38.954;-9.002;2023-07-02T04:16:45;20.27;;;6.82;;
50433;SDS011;36361;38.954;-9.002;2023-07-02T04:17:49;19.70;;;7.45;;
50433;SDS011;36361;38.954;-9.002;2023-07-02T04:18:56;23.25;;;7.25;;
50433;SDS011;36361;38.954;-9.002;2023-07-02T04:20:18;20.67;;;7.13;;
50433;SDS011;36361;38.954;-9.002;2023-07-02T04:21:29;17.40;;;6.68;;
50433;SDS011;36361;38.954;-9.002;2023-07-02T04:22:41;21.95;;;7.90;;
50433;SDS011;36361;38.954;-9.002;2023-07-02T04:24:05;23.27;;;7.45;;
50433;SDS011;36361;38.954;-9.002;2023-07-02T04:25:18;24.88;;;7.22;;
50433;SDS011;36361;38.954;-9.002;2023-07-02T04:26:28;20.48;;;6.95;;
50433;SDS011;36361;38.954;-9.002;2023-07-02T04:27:41;20.92;;;7.82;;
50433;SDS011;36361;38.954;-9.002;2023-07-02T04:29:06;11.32;;;5.05;;
50433;SDS011;36361;38.954;-9.002;2023-07-02T04:30:13;17.80;;;6.60;;
50433;SDS011;36361;38.954;-9.002;2023-07-02T04:31:32;22.63;;;8.18;;
50433;SDS011;36361;38.954;-9.002;2023-07-02T04:32:39;11.68;;;5.25;;
50433;SDS011;36361;38.954;-9.002;2023-07-02T04:33:50;18.60;;;5.95;;
50433;SDS011;36361;38.954;-9.002;2023-07-02T04:36:31;13.02;;;4.90;;
50433;SDS011;36361;38.954;-9.002;2023-07-02T04:37:37;20.02;;;6.53;;
50433;SDS011;36361;38.954;-9.002;2023-07-02T04:38:54;13.00;;;5.15;;
50433;SDS011;36361;38.954;-9.002;2023-07-02T04:40:00;19.10;;;5.95;;
50433;SDS011;36361;38.954;-9.002;2023-07-02T04:41:10;13.68;;;4.85;;
50433;SDS011;36361;38.954;-9.002;2023-07-02T04:42:20;17.52;;;5.97;;
50433;SDS011;36361;38.954;-9.002;2023-07-02T04:43:35;13.95;;;5.45;;
50433;SDS011;36361;38.954;-9.002;2023-07-02T04:45:04;15.07;;;5.18;;
50433;SDS011;36361;38.954;-9.002;2023-07-02T04:46:20;14.30;;;4.90;;
50433;SDS011;36361;38.954;-9.002;2023-07-02T04:47:27;12.52;;;5.00;;
50433;SDS011;36361;38.954;-9.002;2023-07-02T04:48:34;12.13;;;4.95;;
50433;SDS011;36361;38.954;-9.002;2023-07-02T04:49:47;10.80;;;4.70;;
50433;SDS011;36361;38.954;-9.002;2023-07-02T04:51:09;11.57;;;4.10;;
50433;SDS011;36361;38.954;-9.002;2023-07-02T04:52:13;11.48;;;4.25;;
50433;SDS011;36361;38.954;-9.002;2023-07-02T04:53:29;16.02;;;5.47;;
50433;SDS011;36361;38.954;-9.002;2023-07-02T04:54:32;19.08;;;6.97;;
50433;SDS011;36361;38.954;-9.002;2023-07-02T04:55:48;12.02;;;4.72;;
50433;SDS011;36361;38.954;-9.002;2023-07-02T04:57:01;13.40;;;5.55;;
50433;SDS011;36361;38.954;-9.002;2023-07-02T04:58:05;16.02;;;6.35;;
50433;SDS011;36361;38.954;-9.002;2023-07-02T04:59:12;14.70;;;5.45;;
50433;SDS011;36361;38.954;-9.002;2023-07-02T05:00:31;14.05;;;4.85;;
50433;SDS011;36361;38.954;-9.002;2023-07-02T05:01:44;11.60;;;5.18;;
50433;SDS011;36361;38.954;-9.002;2023-07-02T05:03:00;12.75;;;5.22;;
50433;SDS011;36361;38.954;-9.002;2023-07-02T05:04:10;16.33;;;5.30;;
50433;SDS011;36361;38.954;-9.002;2023-07-02T05:05:14;13.90;;;5.65;;
50433;SDS011;36361;38.954;-9.002;2023-07-02T05:06:23;15.23;;;6.07;;
50433;SDS011;36361;38.954;-9.002;2023-07-02T05:08:46;11.90;;;5.13;;
50433;SDS011;36361;38.954;-9.002;2023-07-02T05:09:56;13.25;;;5.15;;
50433;SDS011;36361;38.954;-9.002;2023-07-02T05:11:30;10.55;;;4.57;;
50433;SDS011;36361;38.954;-9.002;2023-07-02T05:12:43;17.30;;;6.22;;
50433;SDS011;36361;38.954;-9.002;2023-07-02T05:14:02;19.95;;;7.13;;
50433;SDS011;36361;38.954;-9.002;2023-07-02T05:15:12;16.00;;;6.15;;
50433;SDS011;36361;38.954;-9.002;2023-07-02T05:16:16;22.40;;;7.78;;
50433;SDS011;36361;38.954;-9.002;2023-07-02T05:17:31;19.95;;;7.20;;
50433;SDS011;36361;38.954;-9.002;2023-07-02T05:18:36;18.45;;;7.20;;
50433;SDS011;36361;38.954;-9.002;2023-07-02T05:19:49;19.70;;;6.60;;
50433;SDS011;36361;38.954;-9.002;2023-07-02T05:21:01;16.33;;;6.03;;
50433;SDS011;36361;38.954;-9.002;2023-07-02T05:22:18;19.52;;;7.10;;
50433;SDS011;36361;38.954;-9.002;2023-07-02T05:23:31;20.25;;;6.47;;
50433;SDS011;36361;38.954;-9.002;2023-07-02T05:24:38;17.85;;;6.38;;
50433;SDS011;36361;38.954;-9.002;2023-07-02T05:25:49;19.55;;;6.70;;
50433;SDS011;36361;38.954;-9.002;2023-07-02T05:26:59;18.98;;;7.18;;
50433;SDS011;36361;38.954;-9.002;2023-07-02T05:28:21;16.80;;;6.82;;
50433;SDS011;36361;38.954;-9.002;2023-07-02T05:29:50;19.52;;;6.18;;
50433;SDS011;36361;38.954;-9.002;2023-07-02T05:30:53;20.73;;;6.38;;
50433;SDS011;36361;38.954;-9.002;2023-07-02T05:32:00;13.32;;;6.38;;
50433;SDS011;36361;38.954;-9.002;2023-07-02T05:33:19;16.77;;;6.90;;
50433;SDS011;36361;38.954;-9.002;2023-07-02T05:34:26;20.67;;;6.82;;
50433;SDS011;36361;38.954;-9.002;2023-07-02T05:35:48;16.85;;;6.30;;
50433;SDS011;36361;38.954;-9.002;2023-07-02T05:37:58;18.00;;;6.13;;
50433;SDS011;36361;38.954;-9.002;2023-07-02T05:39:05;16.60;;;6.68;;
50433;SDS011;36361;38.954;-9.002;2023-07-02T05:40:14;20.73;;;6.97;;
50433;SDS011;36361;38.954;-9.002;2023-07-02T05:41:43;20.40;;;7.15;;
50433;SDS011;36361;38.954;-9.002;2023-07-02T05:42:52;12.13;;;5.80;;
50433;SDS011;36361;38.954;-9.002;2023-07-02T05:43:59;14.48;;;6.43;;
50433;SDS011;36361;38.954;-9.002;2023-07-02T05:45:06;25.88;;;7.32;;
50433;SDS011;36361;38.954;-9.002;2023-07-02T05:46:08;20.42;;;7.32;;
50433;SDS011;36361;38.954;-9.002;2023-07-02T05:47:18;17.35;;;5.95;;
50433;SDS011;36361;38.954;-9.002;2023-07-02T05:48:47;21.85;;;7.03;;
50433;SDS011;36361;38.954;-9.002;2023-07-02T05:49:57;17.63;;;6.95;;
50433;SDS011;36361;38.954;-9.002;2023-07-02T05:51:20;16.17;;;6.13;;
50433;SDS011;36361;38.954;-9.002;2023-07-02T05:52:39;24.83;;;8.48;;
50433;SDS011;36361;38.954;-9.002;2023-07-02T05:53:42;23.45;;;7.28;;
50433;SDS011;36361;38.954;-9.002;2023-07-02T05:54:46;20.17;;;6.80;;
50433;SDS011;36361;38.954;-9.002;2023-07-02T05:55:56;19.00;;;6.97;;
50433;SDS011;36361;38.954;-9.002;2023-07-02T05:57:12;15.90;;;6.53;;
50433;SDS011;36361;38.954;-9.002;2023-07-02T05:58:27;19.98;;;6.95;;
50433;SDS011;36361;38.954;-9.002;2023-07-02T06:01:12;25.02;;;7.75;;
50433;SDS011;36361;38.954;-9.002;2023-07-02T06:02:19;18.58;;;7.93;;
50433;SDS011;36361;38.954;-9.002;2023-07-02T06:03:38;17.85;;;5.97;;
50433;SDS011;36361;38.954;-9.002;2023-07-02T06:04:51;19.80;;;6.80;;
50433;SDS011;36361;38.954;-9.002;2023-07-02T06:06:04;17.25;;;7.00;;
50433;SDS011;36361;38.954;-9.002;2023-07-02T06:07:17;19.42;;;7.53;;
50433;SDS011;36361;38.954;-9.002;2023-07-02T06:08:27;18.25;;;6.93;;
50433;SDS011;36361;38.954;-9.002;2023-07-02T06:09:31;19.38;;;6.60;;
50433;SDS011;36361;38.954;-9.002;2023-07-02T06:10:56;21.45;;;7.53;;
50433;SDS011;36361;38.954;-9.002;2023-07-02T06:12:00;17.67;;;6.30;;
50433;SDS011;36361;38.954;-9.002;2023-07-02T06:13:03;16.55;;;6.68;;
50433;SDS011;36361;38.954;-9.002;2023-07-02T06:14:10;18.80;;;6.53;;
50433;SDS011;36361;38.954;-9.002;2023-07-02T06:15:14;15.32;;;6.78;;
50433;SDS011;36361;38.954;-9.002;2023-07-02T06:16:21;15.82;;;6.13;;
50433;SDS011;36361;38.954;-9.002;2023-07-02T06:17:37;18.45;;;6.97;;
50433;SDS011;36361;38.954;-9.002;2023-07-02T06:18:44;13.55;;;6.07;;
50433;SDS011;36361;38.954;-9.002;2023-07-02T06:20:07;18.17;;;6.13;;
50433;SDS011;36361;38.954;-9.002;2023-07-02T06:21:26;15.82;;;6.82;;
50433;SDS011;36361;38.954;-9.002;2023-07-02T06:22:36;14.80;;;6.13;;
50433;SDS011;36361;38.954;-9.002;2023-07-02T06:23:44;15.82;;;6.05;;
50433;SDS011;36361;38.954;-9.002;2023-07-02T06:24:47;16.98;;;6.05;;
50433;SDS011;36361;38.954;-9.002;2023-07-02T06:25:57;15.32;;;6.38;;
50433;SDS011;36361;38.954;-9.002;2023-07-02T06:27:19;22.13;;;7.43;;
50433;SDS011;36361;38.954;-9.002;2023-07-02T06:28:23;18.40;;;6.45;;
50433;SDS011;36361;38.954;-9.002;2023-07-02T06:29:27;12.32;;;4.97;;
50433;SDS011;36361;38.954;-9.002;2023-07-02T06:30:37;16.55;;;6.20;;
50433;SDS011;36361;38.954;-9.002;2023-07-02T06:31:47;16.65;;;5.93;;
50433;SDS011;36361;38.954;-9.002;2023-07-02T06:32:54;17.10;;;6.75;;
50433;SDS011;36361;38.954;-9.002;2023-07-02T06:34:00;16.75;;;6.47;;
50433;SDS011;36361;38.954;-9.002;2023-07-02T06:35:16;21.88;;;7.82;;
50433;SDS011;36361;38.954;-9.002;2023-07-02T06:36:20;13.40;;;6.28;;
50433;SDS011;36361;38.954;-9.002;2023-07-02T06:37:33;18.33;;;6.57;;
50433;SDS011;36361;38.954;-9.002;2023-07-02T06:38:55;15.75;;;5.85;;
50433;SDS011;36361;38.954;-9.002;2023-07-02T06:40:01;16.52;;;6.00;;
50433;SDS011;36361;38.954;-9.002;2023-07-02T06:41:12;17.73;;;6.20;;
50433;SDS011;36361;38.954;-9.002;2023-07-02T06:42:18;16.50;;;6.38;;
50433;SDS011;36361;38.954;-9.002;2023-07-02T06:43:22;16.80;;;6.22;;
50433;SDS011;36361;38.954;-9.002;2023-07-02T06:44:23;18.67;;;6.55;;
50433;SDS011;36361;38.954;-9.002;2023-07-02T06:45:36;13.30;;;5.88;;
50433;SDS011;36361;38.954;-9.002;2023-07-02T06:46:48;16.90;;;7.18;;
50433;SDS011;36361;38.954;-9.002;2023-07-02T06:47:52;15.00;;;6.07;;
50433;SDS011;36361;38.954;-9.002;2023-07-02T06:48:56;20.38;;;6.47;;
50433;SDS011;36361;38.954;-9.002;2023-07-02T06:50:00;13.88;;;5.95;;
50433;SDS011;36361;38.954;-9.002;2023-07-02T06:51:10;15.57;;;5.95;;
50433;SDS011;36361;38.954;-9.002;2023-07-02T06:52:39;18.10;;;6.88;;
50433;SDS011;36361;38.954;-9.002;2023-07-02T06:54:01;16.42;;;6.65;;
50433;SDS011;36361;38.954;-9.002;2023-07-02T06:55:11;11.82;;;4.95;;
50433;SDS011;36361;38.954;-9.002;2023-07-02T06:56:18;22.25;;;6.68;;
50433;SDS011;36361;38.954;-9.002;2023-07-02T06:57:28;14.85;;;5.85;;
50433;SDS011;36361;38.954;-9.002;2023-07-02T06:58:31;16.92;;;6.50;;
50433;SDS011;36361;38.954;-9.002;2023-07-02T06:59:46;18.38;;;5.85;;
50433;SDS011;36361;38.954;-9.002;2023-07-02T07:01:02;12.07;;;5.57;;
50433;SDS011;36361;38.954;-9.002;2023-07-02T07:02:27;19.80;;;6.57;;
50433;SDS011;36361;38.954;-9.002;2023-07-02T07:03:34;14.88;;;5.43;;
50433;SDS011;36361;38.954;-9.002;2023-07-02T07:04:55;14.52;;;5.25;;
50433;SDS011;36361;38.954;-9.002;2023-07-02T07:06:04;16.98;;;5.72;;
50433;SDS011;36361;38.954;-9.002;2023-07-02T07:07:17;12.07;;;5.38;;
50433;SDS011;36361;38.954;-9.002;2023-07-02T07:08:28;18.27;;;6.22;;
50433;SDS011;36361;38.954;-9.002;2023-07-02T07:09:56;15.90;;;6.25;;
50433;SDS011;36361;38.954;-9.002;2023-07-02T07:11:07;14.40;;;6.10;;
50433;SDS011;36361;38.954;-9.002;2023-07-02T07:12:16;14.65;;;6.07;;
50433;SDS011;36361;38.954;-9.002;2023-07-02T07:13:26;18.27;;;6.63;;
50433;SDS011;36361;38.954;-9.002;2023-07-02T07:14:48;15.02;;;6.03;;
50433;SDS011;36361;38.954;-9.002;2023-07-02T07:16:16;15.35;;;5.97;;